Time;durP1;ratioP1;P1;durP2;ratioP2;P2;SDS_P1;SDS_P2;PMS_P1;PMS_P2;Temp;Humidity;BMP_temperature;BMP_pressure;BME280_temperature;BME280_humidity;BME280_pressure;Samples;Min_cycle;Max_cycle;Signal;HPM_P1;HPM_P2
2021/11/01 00:01:52;;;;;;;15.38;10.35;;;;;;;;;;5086593;28;20051;-71
2021/11/01 00:04:18;;;;;;;16.80;10.55;;;;;;;;;;5094590;28;20046;-70
2021/11/01 00:06:44;;;;;;;16.73;11.07;;;;;;;;;;5076275;28;20617;-70
2021/11/01 00:09:10;;;;;;;16.60;10.82;;;;;;;;;;5076097;28;20036;-70
2021/11/01 00:11:36;;;;;;;16.02;10.80;;;;;;;;;;5094418;28;20028;-70
2021/11/01 00:14:02;;;;;;;18.10;10.68;;;;;;;;;;5076799;28;20016;-71
2021/11/01 00:16:29;;;;;;;18.25;11.43;;;;;;;;;;5086524;28;20046;-71
2021/11/01 00:18:55;;;;;;;15.63;11.48;;;;;;;;;;5096315;28;20482;-71
2021/11/01 00:21:24;;;;;;;17.02;11.27;;;;;;;;;;5114639;28;20378;-71
2021/11/01 00:23:50;;;;;;;16.80;10.82;;;;;;;;;;5114805;28;20022;-71
2021/11/01 00:26:16;;;;;;;15.88;10.88;;;;;;;;;;5096310;28;20093;-71
2021/11/01 00:28:44;;;;;;;16.02;10.55;;;;;;;;;;5114297;28;20019;-71
2021/11/01 00:31:10;;;;;;;15.65;10.82;;;;;;;;;;5103473;28;20032;-71
2021/11/01 00:33:36;;;;;;;16.95;11.13;;;;;;;;;;5094311;28;20107;-69
2021/11/01 00:36:02;;;;;;;15.20;10.55;;;;;;;;;;5075936;28;20028;-70
2021/11/01 00:38:29;;;;;;;16.90;11.15;;;;;;;;;;5093939;28;20020;-71
2021/11/01 00:40:55;;;;;;;17.65;11.50;;;;;;;;;;5093825;28;20480;-71
2021/11/01 00:43:21;;;;;;;17.35;11.07;;;;;;;;;;5093935;28;20244;-70
2021/11/01 00:45:47;;;;;;;17.05;11.52;;;;;;;;;;5093724;28;20024;-71
2021/11/01 00:48:14;;;;;;;15.88;9.93;;;;;;;;;;5087193;28;20046;-70
2021/11/01 00:50:40;;;;;;;14.65;10.68;;;;;;;;;;5113878;28;20088;-70
2021/11/01 00:53:06;;;;;;;17.98;10.93;;;;;;;;;;5114213;28;20533;-70
2021/11/01 00:55:38;;;;;;;17.30;10.63;;;;;;;;;;5113961;28;20092;-70
2021/11/01 00:58:05;;;;;;;16.17;11.32;;;;;;;;;;5114110;28;20034;-70
2021/11/01 01:00:31;;;;;;;16.02;10.77;;;;;;;;;;5113971;28;20023;-70
2021/11/01 01:02:58;;;;;;;18.25;10.82;;;;;;;;;;5093995;28;20412;-71
2021/11/01 01:05:24;;;;;;;17.45;11.70;;;;;;;;;;5094049;28;20552;-70
2021/11/01 01:07:50;;;;;;;18.83;11.57;;;;;;;;;;5093278;28;20035;-70
2021/11/01 01:10:17;;;;;;;19.75;11.38;;;;;;;;;;5093269;28;20032;-70
2021/11/01 01:12:43;;;;;;;17.55;11.20;;;;;;;;;;5093300;28;20475;-70
2021/11/01 01:15:19;;;;;;;14.93;10.35;;;;;;;;;;5093099;28;20024;-70
2021/11/01 01:17:45;;;;;;;16.75;10.98;;;;;;;;;;5093350;28;20069;-70
2021/11/01 01:20:14;;;;;;;15.60;10.45;;;;;;;;;;5074936;28;20093;-70
2021/11/01 01:22:41;;;;;;;16.50;11.07;;;;;;;;;;5075364;28;20081;-71
2021/11/01 01:25:17;;;;;;;15.82;10.90;;;;;;;;;;5092818;28;20020;-71
2021/11/01 01:27:44;;;;;;;16.15;10.70;;;;;;;;;;5092580;28;20036;-71
2021/11/01 01:30:11;;;;;;;15.32;11.23;;;;;;;;;;5092712;28;20499;-70
2021/11/01 01:32:37;;;;;;;16.70;11.48;;;;;;;;;;5092939;28;20040;-70
2021/11/01 01:35:03;;;;;;;17.58;11.15;;;;;;;;;;5092886;28;20027;-70
2021/11/01 01:37:29;;;;;;;18.90;11.93;;;;;;;;;;5092887;28;20020;-70
2021/11/01 01:39:56;;;;;;;15.75;10.57;;;;;;;;;;5091549;28;20099;-71
2021/11/01 01:42:22;;;;;;;18.25;11.52;;;;;;;;;;5113113;28;20027;-70
2021/11/01 01:44:48;;;;;;;17.25;10.20;;;;;;;;;;5112290;28;20035;-70
2021/11/01 01:47:14;;;;;;;16.42;10.80;;;;;;;;;;5113826;28;20022;-69
2021/11/01 01:49:40;;;;;;;13.52;9.57;;;;;;;;;;5079537;28;20028;-70
2021/11/01 01:52:06;;;;;;;17.08;11.25;;;;;;;;;;5087012;28;20441;-71
2021/11/01 01:54:32;;;;;;;18.15;11.65;;;;;;;;;;5103775;28;20012;-69
2021/11/01 01:56:59;;;;;;;14.00;10.48;;;;;;;;;;5092791;28;20027;-70
2021/11/01 01:59:26;;;;;;;18.38;10.70;;;;;;;;;;5091887;28;20031;-70
2021/11/01 02:01:52;;;;;;;17.42;10.90;;;;;;;;;;5111101;28;20020;-70
2021/11/01 02:04:23;;;;;;;15.98;10.27;;;;;;;;;;5112551;28;20499;-71
2021/11/01 02:06:56;;;;;;;16.75;10.60;;;;;;;;;;5102783;28;20032;-71
2021/11/01 02:09:22;;;;;;;;;;;;;;;;;;5109173;28;20019;-70
2021/11/01 02:11:48;;;;;;;18.13;10.63;;;;;;;;;;5112276;28;20316;-70
2021/11/01 02:14:16;;;;;;;16.98;11.02;;;;;;;;;;5092625;28;20024;-70
2021/11/01 02:16:43;;;;;;;19.35;10.82;;;;;;;;;;5073795;28;20024;-70
2021/11/01 02:19:12;;;;;;;16.85;11.40;;;;;;;;;;5073798;28;20028;-70
2021/11/01 02:21:46;;;;;;;15.95;11.05;;;;;;;;;;5109395;28;20020;-69
2021/11/01 02:24:23;;;;;;;18.20;11.02;;;;;;;;;;5111629;28;20737;-71
2021/11/01 02:26:50;;;;;;;15.07;10.32;;;;;;;;;;5093350;28;20022;-70
2021/11/01 02:29:16;;;;;;;16.58;10.82;;;;;;;;;;5089666;28;20111;-71
2021/11/01 02:31:43;;;;;;;16.88;10.35;;;;;;;;;;5091145;28;20028;-70
2021/11/01 02:34:09;;;;;;;17.17;10.25;;;;;;;;;;5091132;28;20090;-70
2021/11/01 02:36:36;;;;;;;17.10;10.77;;;;;;;;;;5091162;28;20024;-69
2021/11/01 02:39:02;;;;;;;15.80;11.07;;;;;;;;;;5091121;28;20052;-70
2021/11/01 02:41:31;;;;;;;17.38;10.75;;;;;;;;;;5090842;28;20031;-73
2021/11/01 02:43:58;;;;;;;17.73;11.43;;;;;;;;;;5091261;28;20020;-70
2021/11/01 02:46:25;;;;;;;16.58;10.90;;;;;;;;;;5074215;28;20048;-71
2021/11/01 02:48:52;;;;;;;15.60;10.10;;;;;;;;;;5091457;28;20060;-69
2021/11/01 02:51:19;;;;;;;16.55;10.07;;;;;;;;;;5073402;28;20032;-69
2021/11/01 02:53:46;;;;;;;17.13;10.88;;;;;;;;;;5091703;28;20468;-71
2021/11/01 02:56:12;;;;;;;16.73;10.68;;;;;;;;;;5091700;28;20028;-71
2021/11/01 02:58:40;;;;;;;14.95;9.65;;;;;;;;;;5086008;28;20030;-70
2021/11/01 03:01:07;;;;;;;16.33;9.85;;;;;;;;;;5101812;28;20024;-71
2021/11/01 03:03:35;;;;;;;18.08;10.55;;;;;;;;;;5105976;28;20506;-72
2021/11/01 03:06:01;;;;;;;15.05;10.00;;;;;;;;;;5073407;28;20624;-69
2021/11/01 03:08:29;;;;;;;16.15;10.88;;;;;;;;;;5091524;28;20024;-69
2021/11/01 03:10:55;;;;;;;18.08;10.55;;;;;;;;;;5091364;28;20039;-70
2021/11/01 03:13:24;;;;;;;14.85;10.32;;;;;;;;;;5113483;28;20428;-70
2021/11/01 03:15:50;;;;;;;15.45;10.48;;;;;;;;;;5097837;28;20063;-69
2021/11/01 03:18:16;;;;;;;14.82;10.13;;;;;;;;;;5111578;28;20024;-70
2021/11/01 03:20:44;;;;;;;16.80;10.15;;;;;;;;;;5096023;28;20077;-69
2021/11/01 03:23:12;;;;;;;18.45;10.57;;;;;;;;;;5095313;28;20016;-69
2021/11/01 03:26:02;;;;;;;17.48;10.27;;;;;;;;;;5095476;28;20028;-70
2021/11/01 03:28:29;;;;;;;15.77;10.65;;;;;;;;;;5087381;28;20169;-69
2021/11/01 03:30:57;;;;;;;18.73;10.65;;;;;;;;;;5095057;28;20089;-69
2021/11/01 03:33:24;;;;;;;17.90;10.30;;;;;;;;;;5095133;28;20069;-69
2021/11/01 03:35:51;;;;;;;14.32;10.10;;;;;;;;;;5095059;28;20056;-69
2021/11/01 03:38:17;;;;;;;15.23;10.18;;;;;;;;;;5095652;28;20496;-69
2021/11/01 03:40:47;;;;;;;17.67;10.52;;;;;;;;;;5095083;28;20073;-69
2021/11/01 03:43:17;;;;;;;17.13;10.30;;;;;;;;;;5076984;28;20055;-69
2021/11/01 03:45:43;;;;;;;15.52;10.73;;;;;;;;;;5076920;28;20447;-69
2021/11/01 03:48:12;;;;;;;15.68;10.40;;;;;;;;;;5095089;28;20055;-70
2021/11/01 03:50:57;;;;;;;15.80;11.43;;;;;;;;;;5094892;28;20395;-70
2021/11/01 03:53:24;;;;;;;16.65;11.35;;;;;;;;;;5094789;28;20012;-70
2021/11/01 03:55:50;;;;;;;15.00;10.23;;;;;;;;;;5095506;28;20112;-70
2021/11/01 03:58:16;;;;;;;16.88;11.10;;;;;;;;;;5094565;28;20543;-71
2021/11/01 04:00:44;;;;;;;15.75;10.60;;;;;;;;;;5094510;28;20028;-71
2021/11/01 04:03:10;;;;;;;19.88;10.48;;;;;;;;;;5076373;28;20115;-71
2021/11/01 04:05:36;;;;;;;18.65;11.27;;;;;;;;;;5076329;28;20504;-69
2021/11/01 04:08:03;;;;;;;13.93;10.05;;;;;;;;;;5094670;28;20017;-70
2021/11/01 04:10:29;;;;;;;15.90;9.65;;;;;;;;;;5094434;28;20039;-69
2021/11/01 04:12:57;;;;;;;16.27;10.82;;;;;;;;;;5095099;28;20024;-71
2021/11/01 04:15:25;;;;;;;18.70;10.57;;;;;;;;;;5093913;28;20024;-70
2021/11/01 04:17:56;;;;;;;17.80;10.93;;;;;;;;;;5114914;28;20015;-69
2021/11/01 04:22:56;;;;;;;16.80;11.60;;;;;;;;;;5114406;28;20028;-71
2021/11/01 04:25:24;;;;;;;18.83;11.05;;;;;;;;;;5096539;28;20024;-70
2021/11/01 04:27:50;;;;;;;17.40;11.35;;;;;;;;;;5114378;28;20051;-71
2021/11/01 04:30:17;;;;;;;15.68;10.98;;;;;;;;;;5094325;28;20102;-71
2021/11/01 04:32:44;;;;;;;17.85;11.88;;;;;;;;;;5075700;28;20126;-70
2021/11/01 04:35:27;;;;;;;16.88;11.23;;;;;;;;;;5094155;28;20024;-69
2021/11/01 04:38:20;;;;;;;15.38;11.35;;;;;;;;;;5076002;28;20031;-70
2021/11/01 04:54:27;;;;;;;16.75;11.73;;;;;;;;;;5093710;28;20085;-70
2021/11/01 04:56:53;;;;;;;15.13;10.65;;;;;;;;;;5093374;28;20030;-70
2021/11/01 04:59:21;;;;;;;15.68;10.55;;;;;;;;;;5103709;27;20073;-70
2021/11/01 05:01:51;;;;;;;14.73;10.75;;;;;;;;;;5077237;28;20085;-70
2021/11/01 05:04:22;;;;;;;18.27;10.93;;;;;;;;;;5113592;28;20351;-70
2021/11/01 05:06:53;;;;;;;15.90;10.88;;;;;;;;;;5095436;28;20027;-69
2021/11/01 05:10:04;;;;;;;17.17;11.05;;;;;;;;;;5113540;28;20035;-70
2021/11/01 05:12:21;;;;;;;18.08;11.73;;;;;;;;;;5104936;28;20062;-71
2021/11/01 05:17:59;;;;;;;16.05;10.65;;;;;;;;;;5050184;28;20118;-71
2021/11/01 05:23:09;;;;;;;16.70;11.27;;;;;;;;;;5113483;28;20467;-71
2021/11/01 05:28:12;;;;;;;15.85;11.07;;;;;;;;;;5113484;28;20115;-70
2021/11/01 05:30:42;;;;;;;15.82;10.88;;;;;;;;;;5112964;28;20131;-72
2021/11/01 05:35:38;;;;;;;15.18;10.45;;;;;;;;;;5112908;28;20038;-70
2021/11/01 05:38:05;;;;;;;15.98;10.90;;;;;;;;;;5094534;28;20083;-70
2021/11/01 05:40:31;;;;;;;18.17;11.95;;;;;;;;;;5092798;28;20044;-70
2021/11/01 05:42:57;;;;;;;15.85;10.93;;;;;;;;;;5092536;28;20028;-71
2021/11/01 05:45:24;;;;;;;15.93;10.30;;;;;;;;;;5092625;28;20024;-70
2021/11/01 05:48:08;;;;;;;17.25;11.25;;;;;;;;;;5092428;28;20020;-71
2021/11/01 05:50:36;;;;;;;18.58;11.43;;;;;;;;;;5074167;28;20123;-70
2021/11/01 05:53:06;;;;;;;17.85;11.57;;;;;;;;;;5074870;28;20065;-68
2021/11/01 06:01:13;;;;;;;16.45;10.73;;;;;;;;;;5066992;28;20050;-72
2021/11/01 06:09:19;;;;;;;13.80;10.68;;;;;;;;;;5112348;28;20035;-69
2021/11/01 06:14:30;;;;;;;14.60;9.90;;;;;;;;;;5112826;28;20054;-69
2021/11/01 06:16:58;;;;;;;17.85;11.13;;;;;;;;;;5112481;28;20031;-70
2021/11/01 06:19:24;;;;;;;16.98;10.70;;;;;;;;;;5112529;28;20034;-70
2021/11/01 06:21:50;;;;;;;15.20;10.57;;;;;;;;;;5112679;28;20019;-69
2021/11/01 06:27:02;;;;;;;15.50;10.30;;;;;;;;;;5111941;28;20039;-69
2021/11/01 06:29:31;;;;;;;18.05;10.95;;;;;;;;;;5112190;28;20093;-70
2021/11/01 06:32:14;;;;;;;14.60;10.07;;;;;;;;;;5112537;28;20089;-71
2021/11/01 06:42:36;;;;;;;15.65;10.75;;;;;;;;;;5092243;28;20030;-70
2021/11/01 06:56:14;;;;;;;19.30;10.30;;;;;;;;;;5095931;28;20074;-71
2021/11/01 06:58:47;;;;;;;23.17;11.52;;;;;;;;;;5096062;28;20074;-70
2021/11/01 07:15:05;;;;;;;13.00;9.20;;;;;;;;;;5095604;28;20112;-74
2021/11/01 07:25:19;;;;;;;14.18;8.32;;;;;;;;;;5115810;28;20027;-70
2021/11/01 08:45:49;;;;;;;15.88;7.40;;;;;;;;;;5093312;28;20056;-69
2021/11/01 08:51:08;;;;;;;14.38;7.53;;;;;;;;;;5093756;28;20028;-69
2021/11/01 09:20:05;;;;;;;12.05;7.05;;;;;;;;;;5093012;28;20031;-69
2021/11/01 09:27:52;;;;;;;11.68;7.35;;;;;;;;;;5093765;28;20024;-69
2021/11/01 09:36:05;;;;;;;10.68;7.22;;;;;;;;;;5112467;28;20164;-70
2021/11/01 09:38:53;;;;;;;9.77;6.25;;;;;;;;;;5094973;28;20485;-70
2021/11/01 09:41:17;;;;;;;9.48;6.57;;;;;;;;;;5113095;28;20027;-70
2021/11/01 09:43:49;;;;;;;11.50;5.93;;;;;;;;;;5113294;28;20614;-70
2021/11/01 09:46:15;;;;;;;8.60;5.68;;;;;;;;;;5094969;28;20032;-71
2021/11/01 09:48:42;;;;;;;8.20;6.00;;;;;;;;;;5112911;28;20046;-72
2021/11/01 09:51:09;;;;;;;10.52;7.13;;;;;;;;;;5112249;28;20563;-70
2021/11/01 09:53:46;;;;;;;9.35;6.22;;;;;;;;;;5113205;28;20486;-69
2021/11/01 09:59:14;;;;;;;11.87;6.63;;;;;;;;;;5113053;28;20059;-70
2021/11/01 10:01:45;;;;;;;9.07;5.95;;;;;;;;;;5077131;28;20115;-69
2021/11/01 10:04:19;;;;;;;9.30;6.05;;;;;;;;;;5092484;28;20023;-69
2021/11/01 10:06:51;;;;;;;11.07;6.18;;;;;;;;;;5092398;28;20103;-70
2021/11/01 10:09:17;;;;;;;;;;;;;;;;;;5093328;28;20016;-70
2021/11/01 10:11:44;;;;;;;9.00;6.03;;;;;;;;;;5092187;28;19918;-70
2021/11/01 10:14:11;;;;;;;11.93;6.97;;;;;;;;;;5092433;28;20020;-70
2021/11/01 10:19:30;;;;;;;10.20;6.82;;;;;;;;;;5092406;28;20031;-69
2021/11/01 10:21:59;;;;;;;10.70;6.70;;;;;;;;;;5091737;28;20021;-69
2021/11/01 10:24:32;;;;;;;9.70;6.53;;;;;;;;;;5092132;28;20048;-70
2021/11/01 10:26:58;;;;;;;9.52;6.43;;;;;;;;;;5076514;28;20031;-69
2021/11/01 10:29:24;;;;;;;10.23;7.25;;;;;;;;;;5084363;28;20052;-70
2021/11/01 10:31:52;;;;;;;11.45;6.18;;;;;;;;;;5070523;28;20059;-70
2021/11/01 10:34:26;;;;;;;11.23;7.22;;;;;;;;;;5070603;28;20035;-70
2021/11/01 10:36:55;;;;;;;11.07;7.05;;;;;;;;;;5071912;28;20040;-70
2021/11/01 10:39:23;;;;;;;12.00;7.47;;;;;;;;;;5056457;28;20488;-70
2021/11/01 10:41:59;;;;;;;10.93;6.78;;;;;;;;;;5051694;28;20024;-70
2021/11/01 11:11:44;;;;;;;9.05;6.03;;;;;;;;;;5051317;28;20130;-70
2021/11/01 11:43:27;;;;;;;10.80;6.65;;;;;;;;;;5095072;28;20059;-70
2021/11/01 11:49:03;;;;;;;9.38;6.50;;;;;;;;;;5115740;28;20139;-69
2021/11/01 11:51:29;;;;;;;10.75;7.13;;;;;;;;;;5114540;28;20035;-70
2021/11/01 11:54:00;;;;;;;9.68;6.43;;;;;;;;;;5097214;28;20110;-71
2021/11/01 11:56:39;;;;;;;9.88;6.85;;;;;;;;;;5115297;28;20102;-70
2021/11/01 11:59:09;;;;;;;9.88;6.70;;;;;;;;;;5112737;28;20496;-70
2021/11/01 12:01:37;;;;;;;11.23;7.05;;;;;;;;;;5094688;28;20020;-70
2021/11/01 12:04:06;;;;;;;10.88;6.40;;;;;;;;;;5094730;28;20131;-70
2021/11/01 12:06:51;;;;;;;9.93;7.13;;;;;;;;;;5076468;28;20068;-70
2021/11/01 12:09:42;;;;;;;8.95;6.63;;;;;;;;;;5114929;28;20084;-70
2021/11/01 12:14:42;;;;;;;10.18;7.03;;;;;;;;;;5115209;28;20063;-70
2021/11/01 12:17:11;;;;;;;9.55;6.68;;;;;;;;;;5114707;28;20331;-70
2021/11/01 12:19:37;;;;;;;10.50;7.45;;;;;;;;;;5114639;28;20118;-70
2021/11/01 12:22:09;;;;;;;9.32;6.65;;;;;;;;;;5114639;28;20019;-70
2021/11/01 12:24:35;;;;;;;10.32;7.05;;;;;;;;;;5090576;28;20088;-71
2021/11/01 12:27:06;;;;;;;10.15;7.18;;;;;;;;;;5094217;28;20023;-71
2021/11/01 12:29:33;;;;;;;10.00;6.43;;;;;;;;;;5109179;28;20055;-70
2021/11/01 12:32:04;;;;;;;11.65;6.45;;;;;;;;;;5114481;28;20104;-70
2021/11/01 12:34:30;;;;;;;12.23;6.93;;;;;;;;;;5114618;28;20015;-69
2021/11/01 12:39:37;;;;;;;12.52;7.25;;;;;;;;;;5114470;28;20072;-70
2021/11/01 12:45:41;;;;;;;9.65;7.07;;;;;;;;;;5094022;28;20031;-70
2021/11/01 12:58:30;;;;;;;9.27;6.40;;;;;;;;;;5098965;28;20026;-70
2021/11/01 13:01:04;;;;;;;8.38;5.60;;;;;;;;;;5096215;28;20024;-70
2021/11/01 13:03:30;;;;;;;9.77;6.68;;;;;;;;;;5093490;28;20032;-70
2021/11/01 13:06:05;;;;;;;10.07;6.35;;;;;;;;;;5093727;28;20012;-70
2021/11/01 13:08:36;;;;;;;10.63;6.60;;;;;;;;;;5093295;28;20020;-70
2021/11/01 13:14:12;;;;;;;9.13;6.45;;;;;;;;;;5093741;28;20035;-70
2021/11/01 13:19:20;;;;;;;10.85;7.07;;;;;;;;;;5093282;28;20596;-70
2021/11/01 13:21:59;;;;;;;10.57;6.93;;;;;;;;;;5093248;28;20023;-70
2021/11/01 13:24:46;;;;;;;10.43;7.22;;;;;;;;;;5093147;28;20074;-70
2021/11/01 13:27:30;;;;;;;11.63;7.30;;;;;;;;;;5098484;28;20370;-70
2021/11/01 13:37:41;;;;;;;9.07;6.18;;;;;;;;;;5113236;28;20500;-70
2021/11/01 13:40:09;;;;;;;11.43;7.03;;;;;;;;;;5113105;28;20011;-70
2021/11/01 13:42:35;;;;;;;10.63;6.95;;;;;;;;;;5113072;28;20023;-69
2021/11/01 13:45:08;;;;;;;10.93;7.32;;;;;;;;;;5093921;28;20055;-70
2021/11/01 13:47:57;;;;;;;11.10;6.80;;;;;;;;;;5094812;28;20541;-70
2021/11/01 13:50:27;;;;;;;10.27;6.82;;;;;;;;;;5100505;28;20067;-70
2021/11/01 13:52:59;;;;;;;11.07;7.07;;;;;;;;;;5092604;28;20085;-70
2021/11/01 13:58:19;;;;;;;10.68;7.40;;;;;;;;;;5092475;28;20082;-69
2021/11/01 14:01:12;;;;;;;12.77;7.13;;;;;;;;;;5092412;28;20110;-69
2021/11/01 14:14:33;;;;;;;11.05;7.40;;;;;;;;;;5112244;28;20020;-70
2021/11/01 14:17:20;;;;;;;12.10;7.20;;;;;;;;;;5093766;28;20027;-72
2021/11/01 14:20:15;;;;;;;10.02;7.15;;;;;;;;;;5111759;28;20015;-69
2021/11/01 14:28:20;;;;;;;10.55;7.32;;;;;;;;;;5079982;28;20028;-69
2021/11/01 15:07:07;;;;;;;22.90;10.45;;;;;;;;;;5092019;28;20123;-70
2021/11/01 15:15:03;;;;;;;26.00;10.88;;;;;;;;;;5096291;28;20017;-70
2021/11/01 15:19:59;;;;;;;24.15;11.38;;;;;;;;;;5095575;28;20093;-69
2021/11/01 15:25:25;;;;;;;23.13;9.70;;;;;;;;;;5095438;28;20069;-71
2021/11/01 16:19:17;;;;;;;12.48;8.15;;;;;;;;;;5094084;28;20115;-69
2021/11/01 16:21:44;;;;;;;16.88;8.80;;;;;;;;;;5094348;28;20042;-70
2021/11/01 16:24:12;;;;;;;15.80;8.35;;;;;;;;;;5076744;28;20032;-69
2021/11/01 16:26:39;;;;;;;12.70;7.68;;;;;;;;;;5108065;28;20386;-71
2021/11/01 16:29:09;;;;;;;14.43;8.00;;;;;;;;;;5095987;28;20533;-70
2021/11/01 16:31:51;;;;;;;15.57;8.07;;;;;;;;;;5114308;28;20032;-71
2021/11/01 16:34:37;;;;;;;11.20;6.57;;;;;;;;;;5114451;28;20040;-71
2021/11/01 16:42:06;;;;;;;14.10;8.27;;;;;;;;;;5114285;28;20370;-70
2021/11/01 16:44:37;;;;;;;13.52;8.20;;;;;;;;;;5083728;28;20028;-70
2021/11/01 16:47:04;;;;;;;13.55;7.63;;;;;;;;;;5093533;28;20024;-70
2021/11/01 16:49:31;;;;;;;16.40;8.95;;;;;;;;;;5094132;28;20024;-70
2021/11/01 16:52:00;;;;;;;14.68;7.65;;;;;;;;;;5093706;28;20032;-70
2021/11/01 16:54:30;;;;;;;14.57;9.00;;;;;;;;;;5093633;28;20047;-70
2021/11/01 16:57:11;;;;;;;14.50;7.85;;;;;;;;;;5075889;28;20028;-70
2021/11/01 17:04:50;;;;;;;14.57;9.23;;;;;;;;;;5093435;28;20036;-70
2021/11/01 17:07:34;;;;;;;13.88;8.23;;;;;;;;;;5093335;28;20027;-70
2021/11/01 17:24:16;;;;;;;14.70;7.65;;;;;;;;;;5113536;28;20507;-70
2021/11/01 17:37:19;;;;;;;12.90;8.45;;;;;;;;;;5093219;28;20039;-71
2021/11/01 18:50:51;;;;;;;13.63;8.48;;;;;;;;;;5091681;28;20024;-69
2021/11/01 18:51:02;;;;;;;12.02;8.50;;;;;;;;;;5091042;28;20047;-69
2021/11/01 18:53:34;;;;;;;10.63;7.10;;;;;;;;;;5091897;28;20020;-70
2021/11/01 18:56:03;;;;;;;10.93;7.65;;;;;;;;;;5104427;28;20083;-69
2021/11/01 18:58:32;;;;;;;11.95;7.50;;;;;;;;;;5112916;28;20027;-70
2021/11/01 19:00:59;;;;;;;11.10;7.50;;;;;;;;;;5112369;28;20019;-70
2021/11/01 19:03:27;;;;;;;13.85;7.10;;;;;;;;;;5093898;28;20024;-69
2021/11/01 21:26:48;;;;;;;11.07;7.20;;;;;;;;;;5113962;28;20034;-70
2021/11/01 21:29:14;;;;;;;12.88;8.02;;;;;;;;;;5083769;28;20047;-70
2021/11/01 21:31:40;;;;;;;21.33;8.38;;;;;;;;;;5075900;28;20070;-70
2021/11/01 21:34:07;;;;;;;13.80;8.95;;;;;;;;;;5113413;28;20024;-70
2021/11/01 21:36:35;;;;;;;20.20;9.20;;;;;;;;;;5113331;28;20467;-71
2021/11/01 21:39:01;;;;;;;17.58;9.15;;;;;;;;;;5095013;28;20066;-70
2021/11/01 21:41:28;;;;;;;14.70;8.75;;;;;;;;;;5113214;28;20038;-70
2021/11/01 21:43:55;;;;;;;19.23;9.27;;;;;;;;;;5113192;28;20433;-70
2021/11/01 21:46:21;;;;;;;16.20;9.00;;;;;;;;;;5082278;28;20542;-70
2021/11/01 21:48:47;;;;;;;17.05;9.90;;;;;;;;;;5092740;28;20034;-71
2021/11/01 21:51:17;;;;;;;16.38;10.05;;;;;;;;;;5074342;28;20032;-71
2021/11/01 21:53:56;;;;;;;17.52;9.13;;;;;;;;;;5092965;28;20019;-71
2021/11/01 21:56:23;;;;;;;14.32;8.85;;;;;;;;;;5092688;28;20048;-72
2021/11/01 21:59:11;;;;;;;15.20;9.80;;;;;;;;;;5074290;28;20032;-71
2021/11/01 22:18:04;;;;;;;11.90;8.35;;;;;;;;;;5092046;28;20085;-70
2021/11/01 22:20:32;;;;;;;18.45;9.88;;;;;;;;;;5088113;28;20024;-71
2021/11/01 22:23:14;;;;;;;20.08;11.38;;;;;;;;;;5112475;28;20012;-72
2021/11/01 22:34:16;;;;;;;18.02;10.20;;;;;;;;;;5112485;28;20426;-72
2021/11/01 22:43:05;;;;;;;21.00;10.55;;;;;;;;;;5091180;28;20077;-71
2021/11/01 22:56:13;;;;;;;13.30;9.80;;;;;;;;;;5091925;28;20035;-71
2021/11/01 22:58:32;;;;;;;14.00;8.80;;;;;;;;;;5091345;28;20032;-71
2021/11/01 23:01:03;;;;;;;12.50;9.52;;;;;;;;;;5073594;28;20050;-72
2021/11/01 23:33:27;;;;;;;13.55;9.73;;;;;;;;;;5095711;28;20085;-76
2021/11/01 23:35:55;;;;;;;13.18;9.30;;;;;;;;;;5077171;28;20039;-73
2021/11/01 23:38:21;;;;;;;12.27;8.52;;;;;;;;;;5077076;28;20498;-70
2021/11/01 23:40:47;;;;;;;12.70;8.45;;;;;;;;;;5095122;28;20012;-71
2021/11/01 23:43:13;;;;;;;13.93;9.98;;;;;;;;;;5095089;28;20478;-74
2021/11/01 23:45:41;;;;;;;14.13;9.48;;;;;;;;;;5095655;28;20024;-70
2021/11/01 23:48:08;;;;;;;14.00;9.15;;;;;;;;;;5094923;28;20016;-75
2021/11/01 23:50:34;;;;;;;13.68;8.95;;;;;;;;;;5094791;28;20028;-75
2021/11/01 23:53:33;;;;;;;13.95;8.70;;;;;;;;;;5094903;28;20099;-74
2021/11/01 23:56:00;;;;;;;14.30;9.38;;;;;;;;;;5094827;28;20020;-71
2021/11/01 23:58:27;;;;;;;17.60;9.65;;;;;;;;;;5094823;28;20095;-71
